Time;durP1;ratioP1;P1;durP2;ratioP2;P2;SDS_P1;SDS_P2;PMS_P1;PMS_P2;Temp;Humidity;BMP_temperature;BMP_pressure;BME280_temperature;BME280_humidity;BME280_pressure;Samples;Min_cycle;Max_cycle;Signal;HPM_P1;HPM_P2
2022/05/31 00:02:18;;;;;;;5.95;4.88;;;12.30;95.60;;;;;;5114187;28;20038;-52
2022/05/31 00:05:03;;;;;;;7.07;4.68;;;12.30;95.60;;;;;;5114073;28;20081;-54
2022/05/31 00:07:47;;;;;;;6.38;4.55;;;12.30;95.60;;;;;;5113736;28;20057;-53
2022/05/31 00:10:32;;;;;;;7.27;5.00;;;12.30;95.70;;;;;;5113989;28;20082;-54
2022/05/31 00:13:16;;;;;;;6.17;5.07;;;12.30;95.80;;;;;;5113990;28;20030;-54
2022/05/31 00:16:00;;;;;;;6.47;4.83;;;12.20;96.10;;;;;;5112883;28;20280;-53
2022/05/31 00:18:44;;;;;;;8.53;4.77;;;12.20;96.60;;;;;;5113767;28;20039;-52
2022/05/31 00:21:59;;;;;;;7.67;5.43;;;12.20;96.70;;;;;;5114299;28;20174;-55
2022/05/31 00:24:43;;;;;;;6.70;5.03;;;12.10;96.50;;;;;;5114322;28;20790;-50
2022/05/31 00:27:28;;;;;;;9.02;5.30;;;12.00;96.60;;;;;;5112984;28;20082;-52
2022/05/31 00:30:13;;;;;;;8.95;5.40;;;11.80;96.70;;;;;;5113653;28;20125;-54
2022/05/31 00:32:58;;;;;;;9.20;5.72;;;11.60;96.80;;;;;;5113635;28;20659;-53
2022/05/31 00:35:45;;;;;;;;;;;11.50;97.10;;;;;;5112546;28;20138;-53
2022/05/31 00:38:29;;;;;;;6.88;5.07;;;11.30;97.50;;;;;;5113115;28;19958;-52
2022/05/31 00:41:26;;;;;;;7.37;4.83;;;11.20;97.50;;;;;;5112936;28;20043;-49
2022/05/31 00:44:19;;;;;;;9.02;5.57;;;11.20;97.70;;;;;;5112490;28;20285;-53
2022/05/31 00:47:24;;;;;;;6.50;4.80;;;11.30;97.60;;;;;;5112195;28;20066;-51
2022/05/31 00:50:35;;;;;;;6.95;4.82;;;11.50;97.50;;;;;;5113082;28;20098;-49
2022/05/31 00:53:25;;;;;;;6.80;4.93;;;11.60;97.30;;;;;;5113174;28;20054;-51
2022/05/31 00:56:22;;;;;;;18.40;5.70;;;11.60;97.20;;;;;;5111984;28;20035;-50
2022/05/31 00:59:11;;;;;;;6.20;4.97;;;11.50;97.20;;;;;;5112654;28;20042;-53
2022/05/31 01:01:56;;;;;;;10.02;5.68;;;11.50;97.50;;;;;;5112646;28;20035;-49
2022/05/31 01:05:04;;;;;;;6.10;4.75;;;11.40;97.70;;;;;;5112782;28;20081;-52
2022/05/31 01:07:48;;;;;;;7.18;4.70;;;11.40;98.00;;;;;;5112214;28;20108;-54
2022/05/31 01:10:32;;;;;;;7.97;5.30;;;11.30;98.20;;;;;;5112384;28;20038;-53
2022/05/31 01:13:18;;;;;;;6.05;5.25;;;11.20;98.20;;;;;;5112460;28;20088;-52
2022/05/31 01:16:10;;;;;;;6.28;5.68;;;11.00;98.40;;;;;;5111701;28;20089;-53
2022/05/31 01:18:55;;;;;;;7.22;5.68;;;11.00;98.70;;;;;;5112368;28;20564;-51
2022/05/31 01:21:40;;;;;;;;;;;10.90;98.90;;;;;;5097374;28;20033;-52
2022/05/31 01:24:26;;;;;;;6.05;5.10;;;10.90;99.90;;;;;;5111841;28;19953;-51
2022/05/31 01:27:36;;;;;;;7.47;5.03;;;11.00;99.80;;;;;;5094209;28;20038;-51
2022/05/31 01:30:21;;;;;;;8.85;5.45;;;11.10;99.80;;;;;;5071918;28;20117;-51
2022/05/31 01:33:26;;;;;;;5.70;5.05;;;11.20;99.80;;;;;;5096603;28;20163;-52
2022/05/31 01:36:16;;;;;;;6.25;4.78;;;11.40;99.60;;;;;;5110854;28;20062;-51
2022/05/31 01:39:12;;;;;;;8.40;5.80;;;11.30;99.20;;;;;;5111665;28;20387;-50
2022/05/31 01:41:59;;;;;;;6.50;5.05;;;11.20;98.50;;;;;;5112223;28;20077;-49
2022/05/31 01:44:48;;;;;;;8.18;5.32;;;11.20;99.20;;;;;;5092060;28;20039;-50
2022/05/31 01:47:34;;;;;;;6.78;5.90;;;11.00;99.10;;;;;;5091293;28;20118;-49
2022/05/31 01:50:20;;;;;;;8.10;4.97;;;10.90;99.50;;;;;;5062008;28;20156;-52
2022/05/31 01:53:06;;;;;;;9.50;5.75;;;10.90;99.50;;;;;;5091907;28;20509;-53
2022/05/31 01:55:51;;;;;;;6.85;5.25;;;10.90;99.70;;;;;;5090285;28;20031;-52
2022/05/31 01:58:38;;;;;;;13.85;5.65;;;11.00;99.80;;;;;;5091501;28;20390;-51
2022/05/31 02:01:23;;;;;;;7.57;5.05;;;11.10;99.50;;;;;;5091254;28;20091;-53
2022/05/31 02:04:08;;;;;;;7.63;5.35;;;11.20;99.40;;;;;;5091200;28;20097;-49
2022/05/31 02:07:10;;;;;;;12.23;5.28;;;11.20;98.90;;;;;;5090440;28;20039;-51
2022/05/31 02:09:55;;;;;;;7.63;5.15;;;11.10;98.50;;;;;;5091637;28;20042;-52
2022/05/31 02:12:39;;;;;;;10.55;5.72;;;11.00;99.40;;;;;;5091281;28;20086;-49
2022/05/31 02:15:24;;;;;;;7.68;5.63;;;11.10;99.40;;;;;;5090452;28;20042;-50
2022/05/31 02:18:10;;;;;;;5.40;4.63;;;11.10;99.30;;;;;;5092724;28;20039;-51
2022/05/31 02:20:53;;;;;;;7.60;5.38;;;11.20;99.50;;;;;;5095281;28;20051;-52
2022/05/31 02:23:38;;;;;;;6.63;4.72;;;11.30;99.30;;;;;;5095034;28;20074;-52
2022/05/31 02:26:22;;;;;;;7.20;5.20;;;11.40;99.20;;;;;;5094450;28;20036;-50
2022/05/31 02:29:06;;;;;;;7.50;5.05;;;11.40;98.80;;;;;;5095509;28;20034;-50
2022/05/31 02:31:51;;;;;;;7.35;5.15;;;11.20;98.80;;;;;;5095046;28;20110;-48
2022/05/31 02:34:39;;;;;;;6.85;4.97;;;11.00;98.90;;;;;;5101763;28;20548;-49
2022/05/31 02:37:24;;;;;;;5.55;5.05;;;10.80;99.10;;;;;;5108649;28;20022;-50
2022/05/31 02:40:09;;;;;;;8.30;5.20;;;10.70;99.40;;;;;;5115408;28;20027;-49
2022/05/31 02:42:54;;;;;;;7.38;4.95;;;10.70;99.60;;;;;;5115112;28;20043;-53
2022/05/31 02:45:38;;;;;;;10.07;5.40;;;10.70;99.90;;;;;;5115075;28;20158;-53
2022/05/31 02:48:22;;;;;;;9.25;5.10;;;10.90;99.90;;;;;;5115656;28;20122;-50
2022/05/31 02:51:07;;;;;;;9.60;5.65;;;11.00;99.40;;;;;;5115632;28;20089;-49
2022/05/31 02:53:51;;;;;;;7.28;4.70;;;10.90;99.20;;;;;;5115659;28;20445;-55
2022/05/31 02:56:35;;;;;;;6.20;4.97;;;10.80;99.50;;;;;;5114725;28;20085;-54
2022/05/31 02:59:19;;;;;;;11.17;5.43;;;10.90;99.60;;;;;;5099793;28;20090;-49
2022/05/31 03:02:04;;;;;;;7.03;5.22;;;11.00;99.80;;;;;;5115196;28;20525;-51
2022/05/31 03:04:48;;;;;;;11.38;5.93;;;10.90;99.50;;;;;;5115098;28;20039;-51
2022/05/31 03:07:32;;;;;;;7.97;5.80;;;10.90;99.70;;;;;;5114816;28;20085;-52
2022/05/31 03:10:17;;;;;;;8.23;4.93;;;11.00;99.40;;;;;;5114747;28;20162;-55
2022/05/31 03:13:02;;;;;;;10.00;5.30;;;11.00;99.40;;;;;;5099163;28;20269;-50
2022/05/31 03:15:47;;;;;;;6.20;5.10;;;11.10;99.30;;;;;;5114025;28;20718;-53
2022/05/31 03:18:35;;;;;;;8.85;5.40;;;11.10;99.60;;;;;;5099254;28;20398;-51
2022/05/31 03:21:26;;;;;;;8.27;5.40;;;11.10;99.20;;;;;;5115065;28;20043;-50
2022/05/31 03:24:17;;;;;;;8.13;5.75;;;11.00;98.70;;;;;;5114992;28;20560;-53
2022/05/31 03:27:05;;;;;;;9.27;5.57;;;10.70;99.40;;;;;;5113963;28;20038;-54
2022/05/31 03:29:52;;;;;;;7.38;5.85;;;10.50;99.90;;;;;;5097744;28;20481;-52
2022/05/31 03:32:37;;;;;;;9.13;5.95;;;10.50;99.90;;;;;;5114462;28;20043;-53
2022/05/31 03:35:21;;;;;;;7.47;5.75;;;10.50;99.50;;;;;;5114156;27;20235;-51
2022/05/31 03:38:05;;;;;;;8.73;6.23;;;10.40;99.20;;;;;;5125424;27;20517;-56
2022/05/31 03:40:59;;;;;;;8.38;5.22;;;10.30;99.90;;;;;;5119439;27;20125;-50
2022/05/31 03:43:44;;;;;;;8.90;6.00;;;10.30;99.90;;;;;;5119986;27;20106;-50
2022/05/31 03:46:28;;;;;;;;;;;10.30;99.90;;;;;;5113907;28;20146;-54
2022/05/31 03:49:12;;;;;;;7.13;6.07;;;10.40;99.90;;;;;;5114112;28;19915;-55
2022/05/31 03:51:56;;;;;;;10.43;5.95;;;10.50;99.90;;;;;;5114050;28;20112;-50
2022/05/31 03:54:41;;;;;;;6.97;5.50;;;10.60;99.90;;;;;;5113821;28;20054;-50
2022/05/31 03:57:25;;;;;;;9.90;5.63;;;10.70;99.90;;;;;;5113362;28;20054;-52
2022/05/31 04:00:11;;;;;;;7.50;5.95;;;11.00;99.90;;;;;;5113055;28;20031;-52
2022/05/31 04:02:55;;;;;;;7.60;5.30;;;11.20;99.50;;;;;;5113759;28;20557;-54
2022/05/31 04:05:39;;;;;;;9.77;6.68;;;11.30;98.80;;;;;;5113081;28;20062;-55
2022/05/31 04:08:24;;;;;;;7.63;5.77;;;11.30;98.70;;;;;;5113670;28;20452;-51
2022/05/31 04:11:08;;;;;;;;;;;11.20;99.30;;;;;;5113258;28;20323;-53
2022/05/31 04:13:54;;;;;;;11.25;6.03;;;11.10;99.50;;;;;;5113583;28;19911;-50
2022/05/31 04:16:38;;;;;;;7.95;5.95;;;11.10;99.20;;;;;;5113053;28;20030;-49
2022/05/31 04:19:22;;;;;;;8.07;5.70;;;11.20;99.20;;;;;;5113336;28;20035;-51
2022/05/31 04:22:06;;;;;;;8.10;6.00;;;11.20;98.80;;;;;;5113343;28;20111;-51
2022/05/31 04:25:00;;;;;;;7.28;6.13;;;11.20;99.10;;;;;;5113564;28;20038;-52
2022/05/31 04:27:45;;;;;;;9.05;5.72;;;11.20;99.10;;;;;;5111924;28;20048;-50
2022/05/31 04:30:29;;;;;;;8.17;5.50;;;11.20;99.00;;;;;;5112981;28;20051;-52
2022/05/31 04:33:13;;;;;;;53.97;32.28;;;11.20;99.20;;;;;;5113219;28;20323;-53
2022/05/31 04:36:02;;;;;;;29.80;19.30;;;11.20;99.10;;;;;;5112213;28;20404;-53
2022/05/31 04:38:46;;;;;;;14.82;9.77;;;11.30;98.90;;;;;;5112984;28;20109;-51
2022/05/31 04:41:30;;;;;;;8.32;6.70;;;11.30;99.00;;;;;;5111492;28;20339;-50
2022/05/31 04:44:16;;;;;;;10.10;6.75;;;11.40;99.00;;;;;;5113198;28;20502;-52
2022/05/31 04:47:01;;;;;;;;;;;11.50;98.90;;;;;;5113210;28;20046;-54
2022/05/31 04:49:45;;;;;;;7.70;6.13;;;11.50;98.80;;;;;;5097878;28;20262;-51
2022/05/31 04:52:29;;;;;;;8.68;5.70;;;11.50;98.80;;;;;;5097936;28;20072;-55
2022/05/31 04:55:13;;;;;;;8.80;6.28;;;11.50;99.20;;;;;;5112486;28;20042;-55
2022/05/31 04:57:57;;;;;;;7.70;5.57;;;11.60;98.80;;;;;;5112848;28;20092;-54
2022/05/31 05:00:41;;;;;;;8.30;6.03;;;11.70;98.90;;;;;;5113089;28;20269;-54
2022/05/31 05:03:25;;;;;;;12.00;6.30;;;11.70;98.80;;;;;;5112886;28;20288;-53
2022/05/31 05:06:12;;;;;;;9.30;5.80;;;11.80;98.70;;;;;;5112340;28;20082;-51
2022/05/31 05:08:56;;;;;;;9.38;6.00;;;11.90;98.80;;;;;;5113005;28;20643;-56
2022/05/31 05:11:41;;;;;;;7.20;5.87;;;12.00;98.90;;;;;;5113338;28;20038;-52
2022/05/31 05:14:25;;;;;;;9.57;5.80;;;12.00;98.80;;;;;;5112639;28;20288;-52
2022/05/31 05:17:09;;;;;;;9.17;5.33;;;12.10;98.90;;;;;;5096613;28;20038;-51
2022/05/31 05:19:53;;;;;;;9.83;6.73;;;12.20;98.80;;;;;;5112271;28;20084;-52
2022/05/31 05:22:37;;;;;;;10.15;6.95;;;12.30;98.60;;;;;;5082710;28;20342;-51
2022/05/31 05:25:21;;;;;;;13.20;10.02;;;12.40;98.50;;;;;;5110302;28;20105;-54
2022/05/31 05:31:27;;;;;;;13.15;6.90;;;12.60;98.40;;;;;;5112793;28;20042;-52
2022/05/31 05:34:11;;;;;;;14.65;7.07;;;12.80;98.20;;;;;;5112275;28;20139;-52
2022/05/31 05:36:55;;;;;;;27.63;10.48;;;12.90;98.00;;;;;;5111696;28;20027;-50
2022/05/31 05:39:39;;;;;;;15.60;8.40;;;13.00;97.80;;;;;;5112366;28;20101;-50
2022/05/31 05:42:23;;;;;;;13.93;8.23;;;13.00;97.40;;;;;;5112023;28;20120;-55
2022/05/31 05:45:10;;;;;;;12.17;7.13;;;13.00;97.30;;;;;;5111705;28;20062;-54
2022/05/31 05:47:54;;;;;;;11.50;6.07;;;12.90;97.00;;;;;;5097160;28;20699;-51
2022/05/31 05:50:40;;;;;;;10.73;6.88;;;12.90;96.90;;;;;;5112389;28;20043;-51
2022/05/31 05:53:24;;;;;;;17.73;7.65;;;12.90;96.70;;;;;;5111555;28;20110;-50
2022/05/31 05:56:10;;;;;;;14.48;6.47;;;12.90;96.80;;;;;;5111797;28;20030;-53
2022/05/31 05:58:55;;;;;;;13.60;7.45;;;13.00;96.80;;;;;;5111959;28;20090;-56
2022/05/31 06:01:47;;;;;;;12.23;6.70;;;13.10;96.70;;;;;;5111835;28;20031;-52
2022/05/31 06:04:41;;;;;;;12.48;7.40;;;13.20;96.30;;;;;;5112281;28;20402;-52
2022/05/31 06:07:30;;;;;;;7.40;6.40;;;13.20;96.30;;;;;;5111546;28;20038;-54
2022/05/31 06:10:27;;;;;;;9.75;6.05;;;13.30;96.30;;;;;;5112402;28;20034;-53
2022/05/31 06:13:17;;;;;;;11.70;5.90;;;13.50;96.10;;;;;;5111671;28;20038;-52
2022/05/31 06:16:02;;;;;;;8.13;7.05;;;13.70;96.00;;;;;;5108231;28;20043;-56
2022/05/31 06:18:57;;;;;;;12.18;6.65;;;13.70;95.70;;;;;;5113988;28;20051;-56
2022/05/31 06:21:43;;;;;;;11.82;7.88;;;13.70;95.60;;;;;;5110506;28;20107;-50
2022/05/31 06:24:30;;;;;;;15.27;7.53;;;13.70;95.50;;;;;;5111894;28;20142;-53
2022/05/31 06:27:15;;;;;;;15.88;7.30;;;13.70;95.50;;;;;;5112579;28;20030;-52
2022/05/31 06:29:59;;;;;;;15.77;7.65;;;13.70;95.50;;;;;;5118480;28;20054;-52
2022/05/31 06:32:45;;;;;;;12.63;7.83;;;13.90;95.40;;;;;;5121478;27;20395;-52
2022/05/31 06:35:29;;;;;;;17.33;7.63;;;14.00;95.40;;;;;;5118131;28;20154;-53
2022/05/31 06:38:16;;;;;;;12.20;7.60;;;14.10;95.30;;;;;;5119192;28;20456;-51
2022/05/31 06:41:00;;;;;;;10.52;7.10;;;14.20;94.90;;;;;;5120101;27;20046;-55
2022/05/31 06:43:44;;;;;;;15.73;7.83;;;14.30;94.70;;;;;;5121472;27;20091;-54
2022/05/31 06:46:29;;;;;;;14.82;7.32;;;14.40;94.30;;;;;;5113860;28;20460;-54
2022/05/31 06:49:14;;;;;;;14.27;8.23;;;14.50;94.10;;;;;;5123294;27;20042;-52
2022/05/31 06:58:10;;;;;;;13.40;7.45;;;14.40;94.20;;;;;;5121294;27;20065;-54
2022/05/31 07:00:55;;;;;;;16.70;8.17;;;14.40;94.30;;;;;;5122004;28;20038;-55
2022/05/31 07:03:39;;;;;;;11.02;6.93;;;14.50;94.20;;;;;;5117972;27;20023;-53
2022/05/31 07:06:23;;;;;;;13.23;7.43;;;14.70;94.00;;;;;;5112658;28;20042;-56
2022/05/31 07:09:08;;;;;;;13.40;6.87;;;14.80;93.80;;;;;;5113689;28;20268;-52
2022/05/31 07:11:56;;;;;;;10.10;6.60;;;15.00;93.40;;;;;;5113465;28;20268;-48
2022/05/31 07:14:40;;;;;;;12.07;7.35;;;15.00;93.10;;;;;;5113013;28;20038;-53
2022/05/31 07:17:24;;;;;;;11.07;7.07;;;14.80;93.00;;;;;;5097647;28;20097;-51
2022/05/31 07:20:09;;;;;;;10.18;7.03;;;14.70;92.90;;;;;;5114525;28;20081;-56
2022/05/31 07:22:53;;;;;;;47.83;12.23;;;14.90;92.80;;;;;;5117309;28;20086;-52
2022/05/31 07:25:37;;;;;;;15.98;7.53;;;15.00;92.90;;;;;;5114849;28;20406;-52
2022/05/31 07:28:21;;;;;;;10.67;7.20;;;15.20;92.70;;;;;;5116202;27;20030;-51
2022/05/31 07:31:05;;;;;;;10.70;6.63;;;15.20;92.70;;;;;;5111673;28;20276;-55
2022/05/31 07:33:50;;;;;;;9.70;6.28;;;15.10;92.50;;;;;;5113198;27;20043;-56
2022/05/31 07:36:34;;;;;;;11.80;6.22;;;15.00;92.70;;;;;;5112999;27;20098;-53
2022/05/31 07:39:20;;;;;;;9.40;5.60;;;15.00;92.90;;;;;;5113052;28;20026;-52
2022/05/31 07:42:04;;;;;;;12.27;6.40;;;15.10;93.00;;;;;;5113241;27;20038;-52
2022/05/31 07:44:53;;;;;;;15.10;6.72;;;15.30;92.80;;;;;;5111391;27;20038;-54
2022/05/31 07:47:37;;;;;;;11.65;6.22;;;15.40;92.90;;;;;;5111620;27;20450;-53
2022/05/31 07:50:22;;;;;;;8.20;5.80;;;15.60;92.60;;;;;;5113701;27;20432;-53
2022/05/31 07:53:07;;;;;;;11.32;7.22;;;15.80;92.30;;;;;;5114216;27;20041;-55
2022/05/31 07:56:00;;;;;;;8.60;5.70;;;15.80;92.10;;;;;;5111772;28;20088;-56
2022/05/31 07:58:46;;;;;;;7.28;4.97;;;16.00;91.80;;;;;;5121624;27;20043;-55
2022/05/31 08:01:30;;;;;;;14.45;6.70;;;16.10;91.30;;;;;;5102188;27;20034;-55
2022/05/31 08:04:15;;;;;;;7.45;5.90;;;16.10;91.30;;;;;;5115458;27;20757;-52
2022/05/31 08:06:59;;;;;;;10.45;6.45;;;16.10;91.20;;;;;;5118558;27;20074;-51
2022/05/31 08:09:44;;;;;;;8.98;5.93;;;15.90;91.30;;;;;;5097286;27;20107;-51
2022/05/31 08:12:28;;;;;;;9.27;5.90;;;16.00;91.10;;;;;;5134234;27;20038;-54
2022/05/31 08:15:12;;;;;;;7.20;5.40;;;16.00;91.20;;;;;;5131925;27;20153;-55
2022/05/31 08:17:57;;;;;;;7.50;5.53;;;16.10;91.40;;;;;;5129036;27;20134;-53
2022/05/31 08:20:41;;;;;;;8.45;5.70;;;16.20;90.60;;;;;;5112733;27;20498;-53
2022/05/31 08:23:25;;;;;;;8.15;6.20;;;16.20;90.30;;;;;;5124090;27;20814;-57
2022/05/31 08:26:11;;;;;;;11.05;6.03;;;16.10;90.60;;;;;;5127010;27;20030;-58
2022/05/31 08:28:55;;;;;;;10.75;5.60;;;16.20;90.60;;;;;;5113152;28;20101;-54
2022/05/31 08:31:40;;;;;;;14.90;6.18;;;16.40;90.50;;;;;;5112208;28;20701;-50
2022/05/31 08:34:27;;;;;;;8.35;5.50;;;16.60;90.20;;;;;;5098139;28;20128;-54
2022/05/31 08:37:11;;;;;;;7.20;5.07;;;16.80;89.20;;;;;;5115877;27;20023;-53
2022/05/31 08:39:55;;;;;;;8.03;5.30;;;16.90;88.90;;;;;;5133007;27;20088;-56
2022/05/31 08:42:48;;;;;;;23.60;7.63;;;16.50;88.70;;;;;;5130198;27;20026;-49
2022/05/31 08:45:47;;;;;;;9.38;5.28;;;16.50;89.30;;;;;;5132898;27;20041;-55
2022/05/31 08:48:41;;;;;;;11.80;6.15;;;16.60;89.30;;;;;;5133373;27;20108;-52
2022/05/31 08:51:55;;;;;;;8.88;5.13;;;16.90;88.90;;;;;;5129432;27;20513;-56
2022/05/31 08:58:03;;;;;;;6.90;4.97;;;17.00;88.00;;;;;;5124802;27;20077;-54
2022/05/31 09:00:51;;;;;;;10.02;5.50;;;17.10;87.90;;;;;;5092968;28;20069;-56
2022/05/31 09:03:40;;;;;;;7.25;5.20;;;17.20;87.30;;;;;;5111229;27;20034;-53
2022/05/31 09:06:45;;;;;;;7.60;5.20;;;17.50;86.20;;;;;;5122457;27;20038;-53
2022/05/31 09:09:38;;;;;;;13.10;6.28;;;17.60;86.30;;;;;;5113198;28;20038;-52
2022/05/31 09:12:29;;;;;;;11.05;6.57;;;17.60;85.90;;;;;;5112803;27;20509;-49
2022/05/31 09:15:21;;;;;;;8.80;5.50;;;17.80;85.80;;;;;;5107937;27;20046;-54
2022/05/31 09:18:09;;;;;;;9.52;5.22;;;17.70;84.00;;;;;;5112437;28;20498;-52
2022/05/31 09:20:56;;;;;;;7.93;4.65;;;17.40;84.60;;;;;;5111542;28;20520;-52
2022/05/31 09:23:40;;;;;;;6.30;4.63;;;17.60;85.00;;;;;;5112487;28;20518;-54
2022/05/31 09:26:53;;;;;;;7.10;5.25;;;17.80;85.10;;;;;;5112187;28;20046;-51
2022/05/31 09:30:01;;;;;;;6.68;4.63;;;17.80;84.00;;;;;;5113003;28;20073;-51
2022/05/31 09:33:04;;;;;;;10.35;6.68;;;18.00;84.30;;;;;;5112559;28;20115;-54
2022/05/31 09:36:15;;;;;;;7.53;4.63;;;17.90;83.40;;;;;;5111750;28;20030;-57
2022/05/31 09:39:22;;;;;;;8.88;4.85;;;18.10;83.40;;;;;;5132665;27;20408;-55
2022/05/31 09:42:29;;;;;;;7.53;4.20;;;18.30;81.60;;;;;;5132584;27;20398;-50
2022/05/31 09:45:17;;;;;;;8.80;4.68;;;18.40;80.80;;;;;;5112388;28;20081;-54
2022/05/31 09:48:04;;;;;;;8.38;5.28;;;18.40;81.20;;;;;;5111845;28;20085;-53
2022/05/31 09:50:49;;;;;;;8.55;4.60;;;18.40;80.80;;;;;;5111252;28;20030;-51
2022/05/31 09:59:49;;;;;;;7.82;3.63;;;18.90;77.80;;;;;;5112112;28;20564;-52
2022/05/31 10:02:36;;;;;;;5.47;4.00;;;19.10;76.20;;;;;;5112145;28;20042;-56
2022/05/31 10:05:21;;;;;;;5.70;4.57;;;19.10;76.50;;;;;;5111667;28;20027;-54
2022/05/31 10:08:31;;;;;;;6.18;3.63;;;19.10;74.90;;;;;;5112608;28;20043;-53
2022/05/31 10:11:29;;;;;;;5.72;3.40;;;18.90;75.00;;;;;;5110557;28;20031;-55
2022/05/31 10:14:26;;;;;;;9.15;4.22;;;18.80;75.80;;;;;;5112192;28;20066;-54
2022/05/31 10:17:29;;;;;;;7.35;4.30;;;18.70;77.00;;;;;;5110891;28;20050;-52
2022/05/31 10:20:24;;;;;;;7.20;4.40;;;18.70;77.20;;;;;;5113021;28;20088;-54
2022/05/31 10:23:13;;;;;;;8.43;4.72;;;18.60;76.80;;;;;;5113524;28;20034;-59
2022/05/31 10:25:59;;;;;;;7.35;4.43;;;18.70;76.90;;;;;;5112334;28;20035;-53
2022/05/31 10:28:53;;;;;;;7.97;4.32;;;18.80;76.50;;;;;;5113311;28;20502;-55
2022/05/31 10:31:41;;;;;;;8.85;3.78;;;19.20;76.30;;;;;;5113265;28;20131;-54
2022/05/31 10:34:31;;;;;;;9.40;5.70;;;19.30;74.30;;;;;;5113405;28;20081;-52
2022/05/31 10:37:26;;;;;;;9.52;4.32;;;19.30;73.70;;;;;;5112826;28;20023;-57
2022/05/31 10:40:17;;;;;;;8.05;4.38;;;19.30;73.00;;;;;;5116316;28;20402;-54
2022/05/31 10:43:21;;;;;;;7.88;3.72;;;19.20;73.10;;;;;;5116637;28;20104;-52
2022/05/31 10:46:15;;;;;;;11.05;3.75;;;19.30;72.50;;;;;;5116053;28;20440;-51
2022/05/31 10:49:16;;;;;;;7.05;3.88;;;19.30;72.30;;;;;;5117722;28;20037;-52
2022/05/31 10:52:43;;;;;;;5.63;3.40;;;19.30;71.00;;;;;;5117333;28;20058;-53
2022/05/31 10:56:00;;;;;;;4.88;3.65;;;19.30;71.30;;;;;;5116838;28;20060;-54
2022/05/31 10:58:57;;;;;;;5.63;3.55;;;19.60;70.60;;;;;;5116984;28;20065;-50
2022/05/31 11:02:06;;;;;;;4.10;3.53;;;19.70;69.50;;;;;;5117243;28;20030;-54
2022/05/31 11:05:00;;;;;;;5.50;3.58;;;19.40;69.40;;;;;;5117156;28;20022;-55
2022/05/31 11:11:37;;;;;;;8.52;5.28;;;19.40;68.80;;;;;;5116668;28;20093;-51
2022/05/31 11:14:43;;;;;;;7.50;4.03;;;19.70;68.30;;;;;;5117057;28;20077;-51
2022/05/31 11:17:55;;;;;;;8.48;3.55;;;19.80;67.60;;;;;;5116975;28;20031;-54
2022/05/31 11:21:03;;;;;;;5.28;2.70;;;19.90;67.60;;;;;;5117981;28;20043;-53
2022/05/31 11:24:10;;;;;;;4.82;2.90;;;20.10;68.10;;;;;;5116544;28;20065;-53
2022/05/31 11:27:19;;;;;;;5.78;3.42;;;20.20;67.90;;;;;;5081476;28;20035;-53
2022/05/31 11:30:11;;;;;;;12.68;4.18;;;20.30;67.40;;;;;;5116721;28;20042;-54
2022/05/31 11:33:02;;;;;;;6.93;3.08;;;20.50;67.00;;;;;;5116583;28;20123;-53
2022/05/31 11:36:09;;;;;;;6.30;3.30;;;20.50;66.20;;;;;;5114918;28;20107;-51
2022/05/31 11:39:02;;;;;;;4.53;3.20;;;20.30;66.00;;;;;;5116134;28;20085;-52
2022/05/31 11:42:03;;;;;;;5.28;3.33;;;20.20;65.60;;;;;;5116409;28;20035;-52
2022/05/31 11:44:51;;;;;;;9.15;3.30;;;20.40;65.60;;;;;;5095758;28;20085;-53
2022/05/31 11:47:53;;;;;;;6.65;3.08;;;20.50;63.80;;;;;;5095928;28;20082;-49
2022/05/31 11:50:59;;;;;;;5.65;3.50;;;20.20;63.60;;;;;;5096922;28;20094;-54
2022/05/31 11:54:02;;;;;;;5.65;3.17;;;20.20;63.80;;;;;;5096702;28;20024;-55
2022/05/31 11:57:00;;;;;;;4.40;3.15;;;20.00;65.00;;;;;;5078099;28;20047;-54
2022/05/31 11:59:52;;;;;;;3.92;3.03;;;20.10;62.70;;;;;;5095840;28;20058;-53
2022/05/31 12:02:47;;;;;;;6.38;3.30;;;20.30;61.60;;;;;;5095784;28;20534;-53
2022/05/31 12:05:37;;;;;;;5.30;3.10;;;20.50;62.50;;;;;;5094797;28;20039;-53
2022/05/31 12:08:29;;;;;;;4.18;3.00;;;20.40;62.60;;;;;;5095792;28;20395;-52
2022/05/31 12:11:35;;;;;;;5.28;2.90;;;20.40;62.90;;;;;;5095334;28;20035;-53
2022/05/31 12:14:22;;;;;;;6.00;3.10;;;20.80;62.50;;;;;;5095133;28;20064;-55
2022/05/31 12:17:08;;;;;;;5.10;3.22;;;20.90;62.00;;;;;;5094641;28;20063;-50
2022/05/31 12:20:00;;;;;;;4.97;2.95;;;21.10;61.20;;;;;;5105763;28;20034;-53
2022/05/31 12:23:15;;;;;;;7.18;3.15;;;21.20;61.40;;;;;;5114582;28;20026;-55
2022/05/31 12:26:02;;;;;;;11.27;6.90;;;21.50;61.40;;;;;;5110915;28;20514;-54
2022/05/31 12:28:50;;;;;;;5.18;3.20;;;21.80;61.60;;;;;;5085936;28;20124;-55
2022/05/31 12:31:37;;;;;;;5.55;3.35;;;22.00;60.90;;;;;;5099818;28;20035;-54
2022/05/31 12:34:22;;;;;;;4.63;3.20;;;22.10;59.20;;;;;;5100468;28;20082;-55
2022/05/31 12:37:09;;;;;;;3.80;2.85;;;22.00;60.00;;;;;;5098684;28;20078;-52
2022/05/31 12:40:32;;;;;;;6.97;3.60;;;21.90;60.00;;;;;;5113624;28;20058;-51
2022/05/31 12:43:42;;;;;;;22.67;4.40;;;22.00;59.20;;;;;;5112557;28;20182;-54
2022/05/31 12:46:46;;;;;;;6.05;3.05;;;22.30;59.00;;;;;;5113389;28;20073;-55
2022/05/31 12:49:32;;;;;;;4.45;2.63;;;21.90;59.10;;;;;;5115149;28;20026;-54
2022/05/31 12:55:23;;;;;;;4.22;3.03;;;21.50;59.80;;;;;;5115248;28;20030;-55
2022/05/31 12:58:35;;;;;;;6.20;3.00;;;21.20;61.00;;;;;;5115791;28;20125;-54
2022/05/31 13:01:22;;;;;;;6.22;2.95;;;21.20;60.50;;;;;;5115459;28;20048;-52
2022/05/31 13:04:26;;;;;;;4.75;2.90;;;21.50;59.90;;;;;;5115491;28;20030;-51
2022/05/31 13:07:17;;;;;;;4.97;2.83;;;21.60;59.50;;;;;;5114440;28;20022;-51
2022/05/31 13:10:32;;;;;;;4.95;3.13;;;21.90;58.80;;;;;;5114043;28;20070;-55
2022/05/31 13:19:53;;;;;;;3.67;2.90;;;22.10;57.70;;;;;;5100843;28;20517;-53
2022/05/31 13:22:42;;;;;;;5.28;2.85;;;22.20;57.90;;;;;;5114221;28;20042;-53
2022/05/31 13:25:43;;;;;;;18.50;4.65;;;22.60;58.20;;;;;;5113848;28;20038;-56
2022/05/31 13:28:35;;;;;;;4.93;3.10;;;22.90;57.50;;;;;;5098523;28;20121;-54
2022/05/31 13:31:22;;;;;;;6.32;3.08;;;22.20;57.30;;;;;;5098490;28;20463;-51
2022/05/31 13:34:08;;;;;;;5.65;2.90;;;22.00;58.20;;;;;;5100046;28;20120;-51
2022/05/31 13:36:53;;;;;;;5.85;2.88;;;21.90;59.00;;;;;;5115424;28;20406;-49
2022/05/31 13:39:42;;;;;;;5.22;3.15;;;21.90;59.40;;;;;;5115396;28;20085;-48
2022/05/31 13:42:36;;;;;;;4.57;2.78;;;22.00;58.90;;;;;;5114188;28;20054;-53
2022/05/31 13:45:26;;;;;;;5.80;3.03;;;21.70;59.80;;;;;;5113922;28;20026;-51
2022/05/31 13:48:18;;;;;;;3.10;2.67;;;21.50;59.40;;;;;;5114427;28;20034;-57
2022/05/31 13:51:06;;;;;;;4.43;3.10;;;21.40;59.50;;;;;;5113683;28;20026;-56
2022/05/31 13:53:52;;;;;;;4.82;2.72;;;21.20;59.70;;;;;;5113616;28;20136;-53
2022/05/31 13:56:36;;;;;;;4.82;3.30;;;21.00;60.30;;;;;;5113818;28;20047;-49
2022/05/31 13:59:54;;;;;;;4.15;2.88;;;20.90;60.10;;;;;;5113568;28;20034;-52
2022/05/31 14:03:00;;;;;;;3.72;2.83;;;20.60;61.00;;;;;;5092445;28;20094;-53
2022/05/31 14:06:14;;;;;;;5.78;3.13;;;20.60;61.50;;;;;;5107375;28;20031;-51
2022/05/31 14:08:59;;;;;;;4.07;3.20;;;20.70;61.20;;;;;;5114563;28;20122;-54
2022/05/31 14:11:59;;;;;;;4.72;2.92;;;20.60;61.20;;;;;;5114578;28;20042;-48
2022/05/31 14:14:47;;;;;;;4.97;3.00;;;20.70;61.60;;;;;;5115986;28;20047;-53
2022/05/31 14:17:39;;;;;;;5.97;4.50;;;20.40;61.90;;;;;;5102515;28;20082;-54
2022/05/31 14:20:31;;;;;;;10.98;5.40;;;20.40;62.70;;;;;;5118249;28;20090;-51
2022/05/31 14:23:20;;;;;;;10.38;3.78;;;20.30;62.80;;;;;;5119710;28;20031;-48
2022/05/31 14:26:04;;;;;;;3.17;2.70;;;20.30;62.80;;;;;;5101783;28;20035;-52
2022/05/31 14:29:12;;;;;;;;;;;20.10;61.80;;;;;;5118935;28;20501;-51
2022/05/31 14:32:02;;;;;;;4.35;2.90;;;20.00;62.70;;;;;;5118287;28;19973;-51
2022/05/31 14:34:50;;;;;;;5.25;2.67;;;19.90;62.80;;;;;;5116631;28;20058;-54
2022/05/31 14:37:44;;;;;;;3.58;2.67;;;19.90;63.50;;;;;;5105422;28;20516;-54
2022/05/31 14:40:31;;;;;;;3.97;2.92;;;19.80;63.90;;;;;;5118674;28;20054;-47
2022/05/31 14:43:31;;;;;;;7.10;4.38;;;19.70;64.60;;;;;;5117603;28;20030;-53
2022/05/31 14:46:29;;;;;;;6.30;3.83;;;19.80;64.20;;;;;;5117214;28;20101;-54
2022/05/31 14:49:26;;;;;;;8.35;3.67;;;19.80;64.40;;;;;;5118381;28;20054;-52
2022/05/31 14:52:32;;;;;;;5.85;3.05;;;19.80;64.10;;;;;;5116862;28;20033;-58
2022/05/31 14:55:25;;;;;;;;;;;19.60;64.40;;;;;;5119760;28;20398;-59
2022/05/31 14:58:37;;;;;;;4.07;3.35;;;19.60;65.10;;;;;;5119324;28;19915;-55
2022/05/31 15:01:34;;;;;;;6.57;3.03;;;19.40;65.40;;;;;;5119793;28;20513;-55
2022/05/31 15:04:29;;;;;;;7.18;3.15;;;19.40;66.10;;;;;;5117983;28;20070;-55
2022/05/31 15:07:17;;;;;;;7.70;3.50;;;19.20;67.30;;;;;;5115921;28;20502;-54
2022/05/31 15:10:21;;;;;;;6.05;3.60;;;18.80;74.40;;;;;;5116846;28;20038;-54
2022/05/31 15:19:25;;;;;;;5.88;4.07;;;17.50;83.50;;;;;;5115939;28;20023;-51
2022/05/31 15:22:10;;;;;;;5.30;4.25;;;17.20;86.10;;;;;;5116154;28;20038;-52
2022/05/31 15:24:57;;;;;;;5.43;3.47;;;17.30;88.20;;;;;;5116211;28;20039;-55